sensor_id;sensor_type;location;lat;lon;timestamp;temperature;humidity
2603;DHT22;1311;47.966;7.958;2023-06-10T00:00:02;17.00;99.90
2603;DHT22;1311;47.966;7.958;2023-06-10T00:02:30;17.00;99.90
2603;DHT22;1311;47.966;7.958;2023-06-10T00:04:57;16.90;99.90
2603;DHT22;1311;47.966;7.958;2023-06-10T00:07:25;16.90;99.90
2603;DHT22;1311;47.966;7.958;2023-06-10T00:09:52;16.80;99.90
2603;DHT22;1311;47.966;7.958;2023-06-10T00:12:20;16.70;99.90
2603;DHT22;1311;47.966;7.958;2023-06-10T00:14:47;16.60;99.90
2603;DHT22;1311;47.966;7.958;2023-06-10T00:17:15;16.60;99.90
2603;DHT22;1311;47.966;7.958;2023-06-10T00:19:42;16.60;99.90
2603;DHT22;1311;47.966;7.958;2023-06-10T00:22:09;16.60;99.90
2603;DHT22;1311;47.966;7.958;2023-06-10T00:24:37;16.50;99.90
2603;DHT22;1311;47.966;7.958;2023-06-10T00:27:05;16.50;99.90
2603;DHT22;1311;47.966;7.958;2023-06-10T00:29:32;16.50;99.90
2603;DHT22;1311;47.966;7.958;2023-06-10T00:31:59;16.40;99.90
2603;DHT22;1311;47.966;7.958;2023-06-10T00:34:25;16.50;99.90
2603;DHT22;1311;47.966;7.958;2023-06-10T00:36:52;16.50;99.90
2603;DHT22;1311;47.966;7.958;2023-06-10T00:39:19;16.40;99.90
2603;DHT22;1311;47.966;7.958;2023-06-10T00:41:47;16.40;99.90
2603;DHT22;1311;47.966;7.958;2023-06-10T00:44:14;16.40;99.90
2603;DHT22;1311;47.966;7.958;2023-06-10T00:46:40;16.30;99.90
2603;DHT22;1311;47.966;7.958;2023-06-10T00:49:07;16.30;99.90
2603;DHT22;1311;47.966;7.958;2023-06-10T00:51:34;16.20;99.90
2603;DHT22;1311;47.966;7.958;2023-06-10T00:54:02;16.20;99.90
2603;DHT22;1311;47.966;7.958;2023-06-10T00:56:29;16.10;99.90
2603;DHT22;1311;47.966;7.958;2023-06-10T00:58:57;16.10;99.90
2603;DHT22;1311;47.966;7.958;2023-06-10T01:01:24;16.00;99.90
2603;DHT22;1311;47.966;7.958;2023-06-10T01:03:50;16.00;99.90
2603;DHT22;1311;47.966;7.958;2023-06-10T01:06:24;16.00;99.90
2603;DHT22;1311;47.966;7.958;2023-06-10T01:08:57;15.90;99.90
2603;DHT22;1311;47.966;7.958;2023-06-10T01:11:42;15.90;99.90
2603;DHT22;1311;47.966;7.958;2023-06-10T01:14:11;15.80;99.90
2603;DHT22;1311;47.966;7.958;2023-06-10T01:16:39;15.80;99.90
2603;DHT22;1311;47.966;7.958;2023-06-10T01:19:06;15.70;99.90
2603;DHT22;1311;47.966;7.958;2023-06-10T01:21:35;15.70;99.90
2603;DHT22;1311;47.966;7.958;2023-06-10T01:24:05;15.70;99.90
2603;DHT22;1311;47.966;7.958;2023-06-10T01:26:34;15.70;99.90
2603;DHT22;1311;47.966;7.958;2023-06-10T01:29:06;15.70;99.90
2603;DHT22;1311;47.966;7.958;2023-06-10T01:31:42;15.60;99.90
2603;DHT22;1311;47.966;7.958;2023-06-10T01:34:14;15.50;99.90
2603;DHT22;1311;47.966;7.958;2023-06-10T01:36:47;15.50;99.90
2603;DHT22;1311;47.966;7.958;2023-06-10T01:39:15;15.40;99.90
2603;DHT22;1311;47.966;7.958;2023-06-10T01:41:41;15.40;99.90
2603;DHT22;1311;47.966;7.958;2023-06-10T01:44:08;15.30;99.90
2603;DHT22;1311;47.966;7.958;2023-06-10T01:46:35;15.30;99.90
2603;DHT22;1311;47.966;7.958;2023-06-10T01:49:02;15.20;99.90
2603;DHT22;1311;47.966;7.958;2023-06-10T01:51:29;15.20;99.90
2603;DHT22;1311;47.966;7.958;2023-06-10T01:53:58;15.20;99.90
2603;DHT22;1311;47.966;7.958;2023-06-10T01:56:25;15.20;99.90
2603;DHT22;1311;47.966;7.958;2023-06-10T01:58:51;15.20;99.90
2603;DHT22;1311;47.966;7.958;2023-06-10T02:01:20;15.10;99.90
2603;DHT22;1311;47.966;7.958;2023-06-10T02:03:47;15.10;99.90
2603;DHT22;1311;47.966;7.958;2023-06-10T02:06:13;15.10;99.90
2603;DHT22;1311;47.966;7.958;2023-06-10T02:08:40;15.00;99.90
2603;DHT22;1311;47.966;7.958;2023-06-10T02:11:08;15.00;99.90
2603;DHT22;1311;47.966;7.958;2023-06-10T02:13:35;15.00;99.90
2603;DHT22;1311;47.966;7.958;2023-06-10T02:16:02;15.00;99.90
2603;DHT22;1311;47.966;7.958;2023-06-10T02:18:29;15.00;99.90
2603;DHT22;1311;47.966;7.958;2023-06-10T02:20:55;15.00;99.90
2603;DHT22;1311;47.966;7.958;2023-06-10T02:23:22;14.90;99.90
2603;DHT22;1311;47.966;7.958;2023-06-10T02:25:49;14.90;99.90
2603;DHT22;1311;47.966;7.958;2023-06-10T02:28:17;15.00;99.90
2603;DHT22;1311;47.966;7.958;2023-06-10T02:30:44;14.90;99.90
2603;DHT22;1311;47.966;7.958;2023-06-10T02:33:12;14.80;99.90
2603;DHT22;1311;47.966;7.958;2023-06-10T02:35:39;14.90;99.90
2603;DHT22;1311;47.966;7.958;2023-06-10T02:38:06;14.80;99.90
2603;DHT22;1311;47.966;7.958;2023-06-10T02:40:33;14.80;99.90
2603;DHT22;1311;47.966;7.958;2023-06-10T02:42:59;14.80;99.90
2603;DHT22;1311;47.966;7.958;2023-06-10T02:45:28;14.80;99.90
2603;DHT22;1311;47.966;7.958;2023-06-10T02:47:54;14.80;99.90
2603;DHT22;1311;47.966;7.958;2023-06-10T02:50:21;14.70;99.90
2603;DHT22;1311;47.966;7.958;2023-06-10T02:52:48;14.70;99.90
2603;DHT22;1311;47.966;7.958;2023-06-10T02:55:15;14.80;99.90
2603;DHT22;1311;47.966;7.958;2023-06-10T02:57:42;14.70;99.90
2603;DHT22;1311;47.966;7.958;2023-06-10T03:00:09;14.70;99.90
2603;DHT22;1311;47.966;7.958;2023-06-10T03:02:38;14.70;99.90
2603;DHT22;1311;47.966;7.958;2023-06-10T03:05:05;14.60;99.90
2603;DHT22;1311;47.966;7.958;2023-06-10T03:07:35;14.60;99.90
2603;DHT22;1311;47.966;7.958;2023-06-10T03:10:02;14.60;99.90
2603;DHT22;1311;47.966;7.958;2023-06-10T03:12:29;14.60;99.90
2603;DHT22;1311;47.966;7.958;2023-06-10T03:14:56;14.60;99.90
2603;DHT22;1311;47.966;7.958;2023-06-10T03:17:22;14.60;99.90
2603;DHT22;1311;47.966;7.958;2023-06-10T03:19:50;14.60;99.90
2603;DHT22;1311;47.966;7.958;2023-06-10T03:22:17;14.60;99.90
2603;DHT22;1311;47.966;7.958;2023-06-10T03:24:44;14.60;99.90
2603;DHT22;1311;47.966;7.958;2023-06-10T03:27:12;14.60;99.90
2603;DHT22;1311;47.966;7.958;2023-06-10T03:29:40;14.60;99.90
2603;DHT22;1311;47.966;7.958;2023-06-10T03:32:07;14.60;99.90
2603;DHT22;1311;47.966;7.958;2023-06-10T03:34:34;14.60;99.90
2603;DHT22;1311;47.966;7.958;2023-06-10T03:37:02;14.60;99.90
2603;DHT22;1311;47.966;7.958;2023-06-10T03:39:29;14.60;99.90
2603;DHT22;1311;47.966;7.958;2023-06-10T03:41:56;14.60;99.90
2603;DHT22;1311;47.966;7.958;2023-06-10T03:44:24;14.60;99.90
2603;DHT22;1311;47.966;7.958;2023-06-10T03:46:52;14.70;99.90
2603;DHT22;1311;47.966;7.958;2023-06-10T03:49:19;14.70;99.90
2603;DHT22;1311;47.966;7.958;2023-06-10T03:51:45;14.70;99.90
2603;DHT22;1311;47.966;7.958;2023-06-10T03:54:13;14.80;99.90
2603;DHT22;1311;47.966;7.958;2023-06-10T03:56:40;14.80;99.90
2603;DHT22;1311;47.966;7.958;2023-06-10T03:59:07;14.90;99.90
2603;DHT22;1311;47.966;7.958;2023-06-10T04:01:33;15.00;99.90
2603;DHT22;1311;47.966;7.958;2023-06-10T04:04:03;15.00;99.90
2603;DHT22;1311;47.966;7.958;2023-06-10T04:06:29;15.00;99.90
2603;DHT22;1311;47.966;7.958;2023-06-10T04:08:57;15.10;99.90
2603;DHT22;1311;47.966;7.958;2023-06-10T04:11:25;15.10;99.90
2603;DHT22;1311;47.966;7.958;2023-06-10T04:13:52;15.20;99.90
2603;DHT22;1311;47.966;7.958;2023-06-10T04:16:19;15.30;99.90
2603;DHT22;1311;47.966;7.958;2023-06-10T04:18:46;15.40;99.90
2603;DHT22;1311;47.966;7.958;2023-06-10T04:21:13;15.60;99.90
2603;DHT22;1311;47.966;7.958;2023-06-10T04:23:40;15.90;99.90
2603;DHT22;1311;47.966;7.958;2023-06-10T04:26:07;16.40;99.90
2603;DHT22;1311;47.966;7.958;2023-06-10T04:28:35;17.10;99.90
2603;DHT22;1311;47.966;7.958;2023-06-10T04:31:02;19.80;99.90
2603;DHT22;1311;47.966;7.958;2023-06-10T04:33:29;21.60;99.90
2603;DHT22;1311;47.966;7.958;2023-06-10T04:35:56;22.90;43.00
2603;DHT22;1311;47.966;7.958;2023-06-10T04:38:23;23.80;99.90
2603;DHT22;1311;47.966;7.958;2023-06-10T04:40:49;24.50;1.00
2603;DHT22;1311;47.966;7.958;2023-06-10T04:43:16;24.90;1.00
2603;DHT22;1311;47.966;7.958;2023-06-10T04:45:45;25.00;99.90
2603;DHT22;1311;47.966;7.958;2023-06-10T04:48:12;25.80;1.00
2603;DHT22;1311;47.966;7.958;2023-06-10T04:50:39;26.60;99.90
2603;DHT22;1311;47.966;7.958;2023-06-10T04:53:06;27.20;91.10
2603;DHT22;1311;47.966;7.958;2023-06-10T04:55:33;27.20;1.00
2603;DHT22;1311;47.966;7.958;2023-06-10T04:57:59;27.40;1.00
2603;DHT22;1311;47.966;7.958;2023-06-10T05:00:26;28.00;1.00
2603;DHT22;1311;47.966;7.958;2023-06-10T05:02:54;28.20;99.90
2603;DHT22;1311;47.966;7.958;2023-06-10T05:05:21;28.40;99.90
2603;DHT22;1311;47.966;7.958;2023-06-10T05:07:48;28.80;99.90
2603;DHT22;1311;47.966;7.958;2023-06-10T05:10:15;29.30;99.90
2603;DHT22;1311;47.966;7.958;2023-06-10T05:12:42;29.70;99.90
2603;DHT22;1311;47.966;7.958;2023-06-10T05:15:09;30.20;99.90
2603;DHT22;1311;47.966;7.958;2023-06-10T05:17:37;30.60;99.90
2603;DHT22;1311;47.966;7.958;2023-06-10T05:20:06;31.20;99.90
2603;DHT22;1311;47.966;7.958;2023-06-10T05:22:33;31.60;99.90
2603;DHT22;1311;47.966;7.958;2023-06-10T05:25:00;31.40;96.90
2603;DHT22;1311;47.966;7.958;2023-06-10T05:27:28;31.70;76.70
2603;DHT22;1311;47.966;7.958;2023-06-10T05:29:55;31.80;41.80
2603;DHT22;1311;47.966;7.958;2023-06-10T05:32:22;32.40;38.90
2603;DHT22;1311;47.966;7.958;2023-06-10T05:34:48;32.80;17.60
2603;DHT22;1311;47.966;7.958;2023-06-10T05:37:16;33.30;9.40
2603;DHT22;1311;47.966;7.958;2023-06-10T05:39:43;34.10;1.00
2603;DHT22;1311;47.966;7.958;2023-06-10T05:42:10;34.20;1.00
2603;DHT22;1311;47.966;7.958;2023-06-10T05:44:37;34.20;1.00
2603;DHT22;1311;47.966;7.958;2023-06-10T05:47:04;34.50;1.00
2603;DHT22;1311;47.966;7.958;2023-06-10T05:49:31;34.50;1.00
2603;DHT22;1311;47.966;7.958;2023-06-10T05:51:57;34.40;1.00
2603;DHT22;1311;47.966;7.958;2023-06-10T05:54:26;34.70;1.00
2603;DHT22;1311;47.966;7.958;2023-06-10T05:56:52;34.50;1.00
2603;DHT22;1311;47.966;7.958;2023-06-10T05:59:19;34.60;1.00
2603;DHT22;1311;47.966;7.958;2023-06-10T06:01:48;34.50;1.00
2603;DHT22;1311;47.966;7.958;2023-06-10T06:04:15;34.10;1.00
2603;DHT22;1311;47.966;7.958;2023-06-10T06:06:41;34.20;1.00
2603;DHT22;1311;47.966;7.958;2023-06-10T06:09:08;34.00;1.00
2603;DHT22;1311;47.966;7.958;2023-06-10T06:11:36;33.90;1.00
2603;DHT22;1311;47.966;7.958;2023-06-10T06:14:03;33.70;1.00
2603;DHT22;1311;47.966;7.958;2023-06-10T06:16:30;33.40;1.00
2603;DHT22;1311;47.966;7.958;2023-06-10T06:18:56;31.90;1.00
2603;DHT22;1311;47.966;7.958;2023-06-10T06:21:23;30.40;1.00
2603;DHT22;1311;47.966;7.958;2023-06-10T06:23:50;29.00;1.00
2603;DHT22;1311;47.966;7.958;2023-06-10T06:26:17;28.20;1.00
2603;DHT22;1311;47.966;7.958;2023-06-10T06:28:45;27.70;1.00
2603;DHT22;1311;47.966;7.958;2023-06-10T06:31:12;27.30;1.00
2603;DHT22;1311;47.966;7.958;2023-06-10T06:33:38;26.90;1.00
2603;DHT22;1311;47.966;7.958;2023-06-10T06:36:05;26.80;1.00
2603;DHT22;1311;47.966;7.958;2023-06-10T06:38:32;26.30;1.00
2603;DHT22;1311;47.966;7.958;2023-06-10T06:40:59;26.10;1.00
2603;DHT22;1311;47.966;7.958;2023-06-10T06:43:28;25.50;24.40
2603;DHT22;1311;47.966;7.958;2023-06-10T06:45:57;25.20;90.00
2603;DHT22;1311;47.966;7.958;2023-06-10T06:48:24;24.90;99.90
2603;DHT22;1311;47.966;7.958;2023-06-10T06:50:51;24.50;99.90
2603;DHT22;1311;47.966;7.958;2023-06-10T06:53:17;23.90;99.90
2603;DHT22;1311;47.966;7.958;2023-06-10T06:55:44;23.80;99.90
2603;DHT22;1311;47.966;7.958;2023-06-10T06:58:11;23.70;1.00
2603;DHT22;1311;47.966;7.958;2023-06-10T07:00:37;23.80;1.00
2603;DHT22;1311;47.966;7.958;2023-06-10T07:03:05;23.90;1.00
2603;DHT22;1311;47.966;7.958;2023-06-10T07:05:32;24.00;1.00
2603;DHT22;1311;47.966;7.958;2023-06-10T07:07:59;24.10;1.00
2603;DHT22;1311;47.966;7.958;2023-06-10T07:10:26;24.10;1.00
2603;DHT22;1311;47.966;7.958;2023-06-10T07:12:53;23.80;1.00
2603;DHT22;1311;47.966;7.958;2023-06-10T07:15:20;23.60;1.00
2603;DHT22;1311;47.966;7.958;2023-06-10T07:17:47;23.40;1.00
2603;DHT22;1311;47.966;7.958;2023-06-10T07:20:15;23.30;1.00
2603;DHT22;1311;47.966;7.958;2023-06-10T07:22:42;23.60;1.00
2603;DHT22;1311;47.966;7.958;2023-06-10T07:25:09;23.80;1.00
2603;DHT22;1311;47.966;7.958;2023-06-10T07:27:36;23.70;1.00
2603;DHT22;1311;47.966;7.958;2023-06-10T07:30:04;23.90;1.00
2603;DHT22;1311;47.966;7.958;2023-06-10T07:32:32;24.00;8.60
2603;DHT22;1311;47.966;7.958;2023-06-10T07:34:58;24.00;99.90
2603;DHT22;1311;47.966;7.958;2023-06-10T07:37:27;23.90;1.00
2603;DHT22;1311;47.966;7.958;2023-06-10T07:39:53;23.80;1.00
2603;DHT22;1311;47.966;7.958;2023-06-10T07:42:20;23.90;28.20
2603;DHT22;1311;47.966;7.958;2023-06-10T07:44:47;23.80;1.00
2603;DHT22;1311;47.966;7.958;2023-06-10T07:47:14;23.80;1.00
2603;DHT22;1311;47.966;7.958;2023-06-10T07:49:40;23.90;1.00
2603;DHT22;1311;47.966;7.958;2023-06-10T07:52:07;23.80;1.00
2603;DHT22;1311;47.966;7.958;2023-06-10T07:54:36;23.90;1.00
2603;DHT22;1311;47.966;7.958;2023-06-10T07:57:03;23.80;1.00
2603;DHT22;1311;47.966;7.958;2023-06-10T07:59:30;24.10;1.00
2603;DHT22;1311;47.966;7.958;2023-06-10T08:01:56;24.30;18.10
2603;DHT22;1311;47.966;7.958;2023-06-10T08:04:23;24.10;1.00
2603;DHT22;1311;47.966;7.958;2023-06-10T08:06:50;24.30;1.00
2603;DHT22;1311;47.966;7.958;2023-06-10T08:09:17;24.40;1.00
2603;DHT22;1311;47.966;7.958;2023-06-10T08:11:46;24.20;1.00
2603;DHT22;1311;47.966;7.958;2023-06-10T08:14:13;24.30;9.10
2603;DHT22;1311;47.966;7.958;2023-06-10T08:16:39;24.50;99.90
2603;DHT22;1311;47.966;7.958;2023-06-10T08:19:06;24.30;81.80
2603;DHT22;1311;47.966;7.958;2023-06-10T08:21:34;24.30;99.90
2603;DHT22;1311;47.966;7.958;2023-06-10T08:24:02;24.20;99.90
2603;DHT22;1311;47.966;7.958;2023-06-10T08:26:29;24.30;99.90
2603;DHT22;1311;47.966;7.958;2023-06-10T08:28:57;24.10;99.90
2603;DHT22;1311;47.966;7.958;2023-06-10T08:31:23;23.90;99.90
2603;DHT22;1311;47.966;7.958;2023-06-10T08:33:50;24.00;99.90
2603;DHT22;1311;47.966;7.958;2023-06-10T08:36:17;24.00;1.00
2603;DHT22;1311;47.966;7.958;2023-06-10T08:38:44;24.00;1.00
2603;DHT22;1311;47.966;7.958;2023-06-10T08:41:12;24.10;1.00
2603;DHT22;1311;47.966;7.958;2023-06-10T08:43:43;24.10;1.00
2603;DHT22;1311;47.966;7.958;2023-06-10T08:46:14;24.10;1.00
2603;DHT22;1311;47.966;7.958;2023-06-10T08:48:43;24.30;1.00
2603;DHT22;1311;47.966;7.958;2023-06-10T08:51:10;24.20;1.00
2603;DHT22;1311;47.966;7.958;2023-06-10T08:53:41;24.20;1.00
2603;DHT22;1311;47.966;7.958;2023-06-10T08:56:10;24.40;1.00
2603;DHT22;1311;47.966;7.958;2023-06-10T08:58:38;24.60;99.90
2603;DHT22;1311;47.966;7.958;2023-06-10T09:01:07;24.30;99.90
2603;DHT22;1311;47.966;7.958;2023-06-10T09:03:37;24.30;99.90
2603;DHT22;1311;47.966;7.958;2023-06-10T09:06:05;24.70;99.90
2603;DHT22;1311;47.966;7.958;2023-06-10T09:08:33;24.60;99.90
2603;DHT22;1311;47.966;7.958;2023-06-10T09:11:00;24.70;99.90
2603;DHT22;1311;47.966;7.958;2023-06-10T09:13:27;24.90;59.90
2603;DHT22;1311;47.966;7.958;2023-06-10T09:15:54;24.90;30.30
2603;DHT22;1311;47.966;7.958;2023-06-10T09:18:22;24.80;86.20
2603;DHT22;1311;47.966;7.958;2023-06-10T09:20:50;24.90;74.00
2603;DHT22;1311;47.966;7.958;2023-06-10T09:23:17;25.30;89.40
2603;DHT22;1311;47.966;7.958;2023-06-10T09:25:44;25.30;1.00
2603;DHT22;1311;47.966;7.958;2023-06-10T09:28:14;25.40;1.00
2603;DHT22;1311;47.966;7.958;2023-06-10T09:30:41;25.40;1.00
2603;DHT22;1311;47.966;7.958;2023-06-10T09:33:11;25.60;1.00
2603;DHT22;1311;47.966;7.958;2023-06-10T09:35:45;25.90;1.00
2603;DHT22;1311;47.966;7.958;2023-06-10T09:38:14;26.00;1.00
2603;DHT22;1311;47.966;7.958;2023-06-10T09:40:48;26.30;1.00
2603;DHT22;1311;47.966;7.958;2023-06-10T09:43:15;26.20;1.00
2603;DHT22;1311;47.966;7.958;2023-06-10T09:45:42;26.40;1.00
2603;DHT22;1311;47.966;7.958;2023-06-10T09:48:09;26.60;1.00
2603;DHT22;1311;47.966;7.958;2023-06-10T09:50:42;26.60;1.00
2603;DHT22;1311;47.966;7.958;2023-06-10T09:53:09;26.80;1.00
2603;DHT22;1311;47.966;7.958;2023-06-10T09:55:39;26.80;1.00
2603;DHT22;1311;47.966;7.958;2023-06-10T09:58:06;26.90;1.00
2603;DHT22;1311;47.966;7.958;2023-06-10T10:00:33;26.90;1.00
2603;DHT22;1311;47.966;7.958;2023-06-10T10:03:01;27.00;1.00
2603;DHT22;1311;47.966;7.958;2023-06-10T10:05:28;26.90;1.00
2603;DHT22;1311;47.966;7.958;2023-06-10T10:07:56;27.20;1.00
2603;DHT22;1311;47.966;7.958;2023-06-10T10:10:23;27.40;1.00
2603;DHT22;1311;47.966;7.958;2023-06-10T10:12:54;27.40;1.00
2603;DHT22;1311;47.966;7.958;2023-06-10T10:15:24;27.30;1.00
2603;DHT22;1311;47.966;7.958;2023-06-10T10:17:53;27.40;1.00
2603;DHT22;1311;47.966;7.958;2023-06-10T10:20:26;27.40;1.00
2603;DHT22;1311;47.966;7.958;2023-06-10T10:22:57;27.50;1.00
2603;DHT22;1311;47.966;7.958;2023-06-10T10:25:27;27.90;99.90
2603;DHT22;1311;47.966;7.958;2023-06-10T10:27:58;28.30;1.00
2603;DHT22;1311;47.966;7.958;2023-06-10T10:30:25;28.60;99.90
2603;DHT22;1311;47.966;7.958;2023-06-10T10:32:58;28.40;99.90
2603;DHT22;1311;47.966;7.958;2023-06-10T10:35:27;28.10;99.90
2603;DHT22;1311;47.966;7.958;2023-06-10T10:37:54;28.20;99.90
2603;DHT22;1311;47.966;7.958;2023-06-10T10:40:21;27.90;99.90
2603;DHT22;1311;47.966;7.958;2023-06-10T10:42:49;27.90;99.90
2603;DHT22;1311;47.966;7.958;2023-06-10T10:45:18;27.70;99.90
2603;DHT22;1311;47.966;7.958;2023-06-10T10:47:46;28.10;99.90
2603;DHT22;1311;47.966;7.958;2023-06-10T10:50:14;28.70;99.90
2603;DHT22;1311;47.966;7.958;2023-06-10T10:52:51;28.90;99.90
2603;DHT22;1311;47.966;7.958;2023-06-10T10:55:18;28.90;99.90
2603;DHT22;1311;47.966;7.958;2023-06-10T10:57:44;28.40;99.90
2603;DHT22;1311;47.966;7.958;2023-06-10T11:00:12;28.40;99.90
2603;DHT22;1311;47.966;7.958;2023-06-10T11:02:44;28.50;99.90
2603;DHT22;1311;47.966;7.958;2023-06-10T11:05:13;28.40;99.90
2603;DHT22;1311;47.966;7.958;2023-06-10T11:07:41;28.60;99.90
2603;DHT22;1311;47.966;7.958;2023-06-10T11:10:17;28.50;99.90
2603;DHT22;1311;47.966;7.958;2023-06-10T11:12:54;28.80;99.90
2603;DHT22;1311;47.966;7.958;2023-06-10T11:15:23;29.10;99.90
2603;DHT22;1311;47.966;7.958;2023-06-10T11:18:11;29.70;99.90
2603;DHT22;1311;47.966;7.958;2023-06-10T11:20:59;29.90;99.90
2603;DHT22;1311;47.966;7.958;2023-06-10T11:23:38;29.90;99.90
2603;DHT22;1311;47.966;7.958;2023-06-10T11:26:20;28.80;99.90
2603;DHT22;1311;47.966;7.958;2023-06-10T11:29:09;28.20;99.90
2603;DHT22;1311;47.966;7.958;2023-06-10T11:31:42;28.20;99.90
2603;DHT22;1311;47.966;7.958;2023-06-10T11:34:11;27.80;99.90
2603;DHT22;1311;47.966;7.958;2023-06-10T11:36:39;28.10;99.90
2603;DHT22;1311;47.966;7.958;2023-06-10T11:39:08;28.50;99.90
2603;DHT22;1311;47.966;7.958;2023-06-10T11:41:37;29.00;99.90
2603;DHT22;1311;47.966;7.958;2023-06-10T11:44:07;28.60;99.90
2603;DHT22;1311;47.966;7.958;2023-06-10T11:46:34;28.70;99.90
2603;DHT22;1311;47.966;7.958;2023-06-10T11:49:02;29.30;99.90
2603;DHT22;1311;47.966;7.958;2023-06-10T11:51:33;29.20;99.90
2603;DHT22;1311;47.966;7.958;2023-06-10T11:54:00;29.60;99.90
2603;DHT22;1311;47.966;7.958;2023-06-10T11:56:29;29.60;99.90
2603;DHT22;1311;47.966;7.958;2023-06-10T11:58:57;29.50;99.90
2603;DHT22;1311;47.966;7.958;2023-06-10T12:01:26;29.50;99.90
2603;DHT22;1311;47.966;7.958;2023-06-10T12:04:00;29.00;99.90
2603;DHT22;1311;47.966;7.958;2023-06-10T12:06:38;29.00;99.90
2603;DHT22;1311;47.966;7.958;2023-06-10T12:09:05;29.10;99.90
2603;DHT22;1311;47.966;7.958;2023-06-10T12:11:32;29.00;99.90
2603;DHT22;1311;47.966;7.958;2023-06-10T12:13:59;29.10;99.90
2603;DHT22;1311;47.966;7.958;2023-06-10T12:16:26;29.00;99.90
2603;DHT22;1311;47.966;7.958;2023-06-10T12:19:01;29.00;99.90
2603;DHT22;1311;47.966;7.958;2023-06-10T12:21:29;28.90;99.90
2603;DHT22;1311;47.966;7.958;2023-06-10T12:24:02;28.90;99.90
2603;DHT22;1311;47.966;7.958;2023-06-10T12:26:37;28.90;99.90
2603;DHT22;1311;47.966;7.958;2023-06-10T12:29:19;29.00;99.90
2603;DHT22;1311;47.966;7.958;2023-06-10T12:31:56;29.00;99.90
2603;DHT22;1311;47.966;7.958;2023-06-10T12:34:32;29.30;99.90
2603;DHT22;1311;47.966;7.958;2023-06-10T12:36:59;29.50;99.90
2603;DHT22;1311;47.966;7.958;2023-06-10T12:39:28;29.90;99.90
2603;DHT22;1311;47.966;7.958;2023-06-10T12:41:54;30.20;99.90
2603;DHT22;1311;47.966;7.958;2023-06-10T12:44:34;30.30;97.10
2603;DHT22;1311;47.966;7.958;2023-06-10T12:47:07;30.40;99.90
2603;DHT22;1311;47.966;7.958;2023-06-10T12:49:35;30.20;99.90
2603;DHT22;1311;47.966;7.958;2023-06-10T12:52:02;29.90;99.90
2603;DHT22;1311;47.966;7.958;2023-06-10T12:54:30;29.50;99.90
2603;DHT22;1311;47.966;7.958;2023-06-10T12:56:57;29.30;99.90
2603;DHT22;1311;47.966;7.958;2023-06-10T12:59:24;29.50;99.90
2603;DHT22;1311;47.966;7.958;2023-06-10T13:01:51;29.70;99.90
2603;DHT22;1311;47.966;7.958;2023-06-10T13:04:18;29.60;99.90
2603;DHT22;1311;47.966;7.958;2023-06-10T13:06:45;29.70;99.90
2603;DHT22;1311;47.966;7.958;2023-06-10T13:09:12;29.80;99.90
2603;DHT22;1311;47.966;7.958;2023-06-10T13:11:40;29.80;99.90
2603;DHT22;1311;47.966;7.958;2023-06-10T13:14:09;29.80;99.90
2603;DHT22;1311;47.966;7.958;2023-06-10T13:16:36;29.80;99.90
2603;DHT22;1311;47.966;7.958;2023-06-10T13:19:05;29.80;99.90
2603;DHT22;1311;47.966;7.958;2023-06-10T13:21:32;30.20;99.90
2603;DHT22;1311;47.966;7.958;2023-06-10T13:23:59;30.00;99.90
2603;DHT22;1311;47.966;7.958;2023-06-10T13:26:26;29.90;99.90
2603;DHT22;1311;47.966;7.958;2023-06-10T13:28:54;29.50;99.90
2603;DHT22;1311;47.966;7.958;2023-06-10T13:31:20;29.70;99.90
2603;DHT22;1311;47.966;7.958;2023-06-10T13:33:47;29.50;99.90
2603;DHT22;1311;47.966;7.958;2023-06-10T13:36:14;29.30;99.90
2603;DHT22;1311;47.966;7.958;2023-06-10T13:38:41;29.10;99.90
2603;DHT22;1311;47.966;7.958;2023-06-10T13:41:08;28.90;99.90
2603;DHT22;1311;47.966;7.958;2023-06-10T13:43:35;29.10;99.90
2603;DHT22;1311;47.966;7.958;2023-06-10T13:46:03;28.80;99.90
2603;DHT22;1311;47.966;7.958;2023-06-10T13:48:30;28.80;99.90
2603;DHT22;1311;47.966;7.958;2023-06-10T13:50:57;29.20;99.90
2603;DHT22;1311;47.966;7.958;2023-06-10T13:53:25;29.60;99.90
2603;DHT22;1311;47.966;7.958;2023-06-10T13:55:51;30.00;99.90
2603;DHT22;1311;47.966;7.958;2023-06-10T13:58:18;30.30;99.90
2603;DHT22;1311;47.966;7.958;2023-06-10T14:00:45;30.60;99.90
2603;DHT22;1311;47.966;7.958;2023-06-10T14:03:14;30.40;75.70
2603;DHT22;1311;47.966;7.958;2023-06-10T14:05:40;30.20;53.60
2603;DHT22;1311;47.966;7.958;2023-06-10T14:08:07;30.10;47.20
2603;DHT22;1311;47.966;7.958;2023-06-10T14:10:34;29.90;47.90
2603;DHT22;1311;47.966;7.958;2023-06-10T14:13:01;29.60;41.70
2603;DHT22;1311;47.966;7.958;2023-06-10T14:15:27;29.60;56.00
2603;DHT22;1311;47.966;7.958;2023-06-10T14:17:54;29.30;47.00
2603;DHT22;1311;47.966;7.958;2023-06-10T14:20:22;29.20;42.70
2603;DHT22;1311;47.966;7.958;2023-06-10T14:22:50;29.40;45.00
2603;DHT22;1311;47.966;7.958;2023-06-10T14:25:17;29.70;64.70
2603;DHT22;1311;47.966;7.958;2023-06-10T14:27:44;30.00;37.40
2603;DHT22;1311;47.966;7.958;2023-06-10T14:30:13;30.20;42.80
2603;DHT22;1311;47.966;7.958;2023-06-10T14:32:39;30.10;28.10
2603;DHT22;1311;47.966;7.958;2023-06-10T14:35:06;29.80;20.40
2603;DHT22;1311;47.966;7.958;2023-06-10T14:37:34;30.00;18.40
2603;DHT22;1311;47.966;7.958;2023-06-10T14:40:02;30.30;11.40
2603;DHT22;1311;47.966;7.958;2023-06-10T14:42:28;30.70;10.60
2603;DHT22;1311;47.966;7.958;2023-06-10T14:44:55;31.20;9.80
2603;DHT22;1311;47.966;7.958;2023-06-10T14:47:22;30.90;1.00
2603;DHT22;1311;47.966;7.958;2023-06-10T14:49:49;30.90;1.00
2603;DHT22;1311;47.966;7.958;2023-06-10T14:52:15;30.60;1.00
2603;DHT22;1311;47.966;7.958;2023-06-10T14:54:44;30.30;1.00
2603;DHT22;1311;47.966;7.958;2023-06-10T14:57:10;30.20;1.00
2603;DHT22;1311;47.966;7.958;2023-06-10T14:59:37;30.20;1.00
2603;DHT22;1311;47.966;7.958;2023-06-10T15:02:04;30.00;1.00
2603;DHT22;1311;47.966;7.958;2023-06-10T15:04:31;29.90;1.00
2603;DHT22;1311;47.966;7.958;2023-06-10T15:06:58;29.50;1.00
2603;DHT22;1311;47.966;7.958;2023-06-10T15:09:25;29.40;1.00
2603;DHT22;1311;47.966;7.958;2023-06-10T15:11:53;29.20;1.00
2603;DHT22;1311;47.966;7.958;2023-06-10T15:14:20;28.90;1.00
2603;DHT22;1311;47.966;7.958;2023-06-10T15:16:47;28.40;1.00
2603;DHT22;1311;47.966;7.958;2023-06-10T15:19:14;28.30;1.00
2603;DHT22;1311;47.966;7.958;2023-06-10T15:21:41;28.70;1.00
2603;DHT22;1311;47.966;7.958;2023-06-10T15:24:08;29.00;1.00
2603;DHT22;1311;47.966;7.958;2023-06-10T15:26:35;29.00;1.00
2603;DHT22;1311;47.966;7.958;2023-06-10T15:29:03;29.40;1.00
2603;DHT22;1311;47.966;7.958;2023-06-10T15:31:31;29.20;1.00
2603;DHT22;1311;47.966;7.958;2023-06-10T15:33:59;29.10;1.00
2603;DHT22;1311;47.966;7.958;2023-06-10T15:36:26;28.90;1.00
2603;DHT22;1311;47.966;7.958;2023-06-10T15:38:53;29.00;1.00
2603;DHT22;1311;47.966;7.958;2023-06-10T15:41:20;29.00;1.00
2603;DHT22;1311;47.966;7.958;2023-06-10T15:43:47;28.90;1.00
2603;DHT22;1311;47.966;7.958;2023-06-10T15:46:15;28.70;1.00
2603;DHT22;1311;47.966;7.958;2023-06-10T15:48:42;28.80;1.00
2603;DHT22;1311;47.966;7.958;2023-06-10T15:51:08;28.80;1.00
2603;DHT22;1311;47.966;7.958;2023-06-10T15:53:36;29.00;7.70
2603;DHT22;1311;47.966;7.958;2023-06-10T15:56:03;28.70;31.60
2603;DHT22;1311;47.966;7.958;2023-06-10T15:58:30;28.20;60.20
2603;DHT22;1311;47.966;7.958;2023-06-10T16:00:57;27.80;99.90
2603;DHT22;1311;47.966;7.958;2023-06-10T16:03:25;27.60;99.90
2603;DHT22;1311;47.966;7.958;2023-06-10T16:05:52;27.30;99.90
2603;DHT22;1311;47.966;7.958;2023-06-10T16:08:18;27.10;1.00
2603;DHT22;1311;47.966;7.958;2023-06-10T16:10:46;26.90;1.00